createdAt,value
2019-04-21T00:01:08.347Z,7.20
2019-04-21T00:06:31.585Z,7.30
2019-04-21T00:11:36.483Z,7.40
2019-04-21T00:16:32.149Z,7.50
2019-04-21T00:21:36.502Z,7.50
2019-04-21T00:26:55.798Z,7.40
2019-04-21T00:31:56.621Z,7.30
2019-04-21T00:36:56.046Z,7.10
2019-04-21T00:42:12.916Z,7.00
2019-04-21T00:47:18.015Z,6.80
2019-04-21T01:07:55.413Z,6.30
2019-04-21T01:13:02.701Z,6.20
2019-04-21T01:18:04.845Z,6.10
2019-04-21T01:22:53.626Z,6.00
2019-04-21T01:28:13.524Z,5.90
2019-04-21T01:33:26.046Z,5.80
2019-04-21T01:38:35.708Z,5.70
2019-04-21T01:43:33.927Z,5.70
2019-04-21T01:48:40.317Z,5.60
2019-04-21T01:53:59.560Z,5.40
2019-04-21T01:58:51.463Z,5.40
2019-04-21T02:04:06.890Z,5.30
2019-04-21T02:09:09.805Z,5.20
2019-04-21T02:14:26.314Z,5.20
2019-04-21T02:19:26.177Z,5.10
2019-04-21T02:29:41.566Z,4.90
2019-04-21T02:35:07.909Z,4.80
2019-04-21T02:40:03.937Z,4.80
2019-04-21T02:45:09.481Z,4.70
2019-04-21T02:50:25.925Z,4.70
2019-04-21T02:55:15.585Z,4.70
2019-04-21T03:05:48.750Z,4.60
2019-04-21T03:16:04.969Z,4.50
2019-04-21T03:21:16.525Z,4.50
2019-04-21T03:26:22.815Z,4.50
2019-04-21T03:36:39.875Z,4.30
2019-04-21T03:41:50.576Z,4.20
2019-04-21T03:47:01.742Z,4.10
2019-04-21T03:52:03.783Z,4.10
2019-04-21T04:02:18.249Z,4.10
2019-04-21T04:12:48.362Z,3.90
2019-04-21T04:17:49.931Z,3.80
2019-04-21T04:23:02.954Z,3.80
2019-04-21T04:33:08.045Z,3.70
2019-04-21T04:38:26.651Z,3.80
2019-04-21T04:43:30.703Z,3.90
2019-04-21T04:48:43.406Z,3.90
2019-04-21T04:59:10.600Z,4.20
2019-04-21T05:09:03.374Z,4.90
2019-04-21T05:14:02.979Z,6.10
2019-04-21T05:24:01.333Z,8.40
2019-04-21T05:29:00.674Z,9.50
2019-04-21T05:34:22.029Z,10.40
2019-04-21T05:39:48.999Z,11.40
2019-04-21T05:45:01.695Z,12.00
2019-04-21T05:50:06.239Z,12.70
2019-04-21T05:55:19.971Z,13.30
2019-04-21T06:00:23.064Z,14.00
2019-04-21T06:05:36.780Z,14.70
2019-04-21T06:10:45.849Z,15.40
2019-04-21T06:15:45.512Z,16.00
2019-04-21T06:20:46.791Z,16.50
2019-04-21T06:26:08.269Z,17.00
2019-04-21T06:36:39.600Z,17.50
2019-04-21T06:41:34.346Z,18.10
2019-04-21T06:46:48.950Z,18.50
2019-04-21T06:51:45.457Z,18.60
2019-04-21T06:56:56.594Z,19.10
2019-04-21T07:02:13.407Z,19.60
2019-04-21T07:07:05.166Z,20.20
2019-04-21T07:12:06.102Z,20.80
2019-04-21T07:17:26.949Z,21.20
2019-04-21T07:22:24.958Z,21.70
2019-04-21T07:32:38.133Z,22.30
2019-04-21T07:37:41.573Z,22.80
2019-04-21T07:42:42.890Z,23.10
2019-04-21T07:47:55.176Z,23.10
2019-04-21T07:53:16.459Z,23.70
2019-04-21T07:58:17.764Z,24.00
2019-04-21T08:03:24.757Z,24.10
2019-04-21T08:08:26.377Z,24.20
2019-04-21T08:18:44.225Z,24.90
2019-04-21T08:23:41.466Z,25.00
2019-04-21T08:28:55.407Z,25.20
2019-04-21T08:34:01.999Z,25.40
2019-04-21T08:39:03.229Z,25.40
2019-04-21T08:44:18.503Z,25.70
2019-04-21T08:49:13.396Z,25.80
2019-04-21T08:54:22.022Z,25.60
2019-04-21T08:59:54.846Z,25.80
2019-04-21T09:04:55.557Z,26.30
2019-04-21T09:09:59.333Z,26.40
2019-04-21T09:15:04.678Z,26.40
2019-04-21T09:20:17.277Z,26.40
2019-04-21T09:25:21.191Z,26.50
2019-04-21T09:30:06.484Z,26.40
2019-04-21T09:35:12.450Z,26.60
2019-04-21T09:40:16.856Z,26.50
2019-04-21T09:45:22.941Z,26.60
2019-04-21T09:50:27.863Z,26.20
2019-04-21T09:55:41.754Z,25.90
2019-04-21T10:00:46.180Z,25.50
2019-04-21T10:05:43.136Z,25.60
2019-04-21T10:10:48.976Z,25.50
2019-04-21T10:16:10.884Z,25.60
2019-04-21T10:21:15.437Z,25.80
2019-04-21T10:26:19.758Z,25.70
2019-04-21T10:31:24.940Z,26.30
2019-04-21T10:36:30.951Z,26.20
2019-04-21T10:41:35.225Z,26.40
2019-04-21T10:46:40.497Z,26.40
2019-04-21T10:51:44.800Z,26.10
2019-04-21T10:56:49.520Z,25.70
2019-04-21T11:01:55.169Z,26.00
2019-04-21T11:07:06.986Z,26.10
2019-04-21T11:12:06.261Z,25.90
2019-04-21T11:17:10.587Z,25.80
2019-04-21T11:22:16.743Z,26.20
2019-04-21T11:27:22.539Z,26.10
2019-04-21T11:32:27.364Z,25.80
2019-04-21T11:37:34.610Z,25.40
2019-04-21T11:42:41.750Z,25.10
2019-04-21T11:48:06.263Z,24.80
2019-04-21T11:53:10.715Z,24.90
2019-04-21T11:58:15.993Z,24.70
2019-04-21T12:03:20.778Z,24.60
2019-04-21T12:08:34.385Z,24.60
2019-04-21T12:13:32.565Z,24.70
2019-04-21T12:18:37.010Z,24.20
2019-04-21T12:23:40.584Z,23.50
2019-04-21T12:28:45.878Z,23.10
2019-04-21T12:33:56.333Z,22.90
2019-04-21T12:39:03.306Z,22.70
2019-04-21T12:44:08.986Z,22.80
2019-04-21T12:49:22.886Z,22.60
2019-04-21T12:54:27.915Z,22.60
2019-04-21T12:59:35.900Z,22.50
2019-04-21T13:04:42.242Z,22.50
2019-04-21T13:09:48.466Z,22.50
2019-04-21T13:15:39.676Z,22.60
2019-04-21T13:20:44.639Z,22.60
2019-04-21T13:25:54.131Z,22.60
2019-04-21T13:31:26.510Z,22.70
2019-04-21T13:36:33.822Z,22.70
2019-04-21T13:41:50.584Z,22.70
2019-04-21T13:46:49.345Z,22.70
2019-04-21T13:51:54.180Z,22.70
2019-04-21T13:57:00.550Z,22.70
2019-04-21T14:02:06.895Z,22.70
2019-04-21T14:07:12.230Z,22.80
2019-04-21T14:12:38.292Z,22.70
2019-04-21T14:17:43.147Z,22.70
2019-04-21T14:22:49.610Z,22.70
2019-04-21T14:27:55.689Z,22.60
2019-04-21T14:33:00.285Z,22.60
2019-04-21T14:38:04.859Z,22.60
2019-04-21T14:43:08.157Z,22.50
2019-04-21T14:48:30.546Z,22.40
2019-04-21T14:53:49.782Z,22.40
2019-04-21T14:58:57.308Z,22.40
2019-04-21T15:04:01.620Z,22.40
2019-04-21T15:09:09.130Z,22.30
2019-04-21T15:14:15.798Z,22.20
2019-04-21T15:19:20.462Z,22.20
2019-04-21T15:24:24.351Z,22.20
2019-04-21T15:29:28.934Z,22.10
2019-04-21T15:34:34.018Z,22.10
2019-04-21T15:39:38.475Z,22.10
2019-04-21T15:44:42.845Z,22.00
2019-04-21T15:50:04.733Z,21.80
2019-04-21T15:55:14.682Z,21.70
2019-04-21T16:00:32.327Z,21.60
2019-04-21T16:05:44.568Z,21.50
2019-04-21T16:10:56.009Z,21.50
2019-04-21T16:15:59.319Z,21.40
2019-04-21T16:21:06.003Z,21.30
2019-04-21T16:26:15.201Z,21.20
2019-04-21T16:31:20.402Z,21.10
2019-04-21T16:36:29.569Z,20.90
2019-04-21T16:41:36.133Z,20.80
2019-04-21T16:46:43.276Z,20.70
2019-04-21T16:51:52.307Z,20.60
2019-04-21T16:57:28.025Z,20.50
2019-04-21T17:02:36.716Z,20.40
2019-04-21T17:07:45.119Z,20.30
2019-04-21T17:12:51.292Z,20.20
2019-04-21T17:18:16.239Z,20.00
2019-04-21T17:23:04.085Z,19.90
2019-04-21T17:28:08.147Z,19.70
2019-04-21T17:33:16.197Z,19.60
2019-04-21T17:38:21.782Z,19.50
2019-04-21T17:43:26.043Z,19.30
2019-04-21T17:48:31.298Z,19.20
2019-04-21T17:53:53.799Z,18.90
2019-04-21T17:59:24.241Z,18.60
2019-04-21T18:04:28.516Z,18.40
2019-04-21T18:09:37.484Z,18.20
2019-04-21T18:14:20.718Z,17.90
2019-04-21T18:19:28.709Z,17.70
2019-04-21T18:24:40.930Z,17.50
2019-04-21T18:29:42.361Z,17.20
2019-04-21T18:35:29.292Z,16.90
2019-04-21T18:40:36.876Z,16.60
2019-04-21T18:46:13.682Z,16.30
2019-04-21T18:51:45.156Z,15.80
2019-04-21T18:56:31.495Z,15.50
2019-04-21T19:01:38.383Z,15.10
2019-04-21T19:07:00.821Z,14.80
2019-04-21T19:12:07.666Z,14.40
2019-04-21T19:22:20.499Z,13.50
2019-04-21T19:27:50.250Z,13.30
2019-04-21T19:32:59.484Z,13.10
2019-04-21T19:37:55.194Z,12.90
2019-04-21T19:43:02.898Z,12.70
2019-04-21T19:48:13.659Z,12.50
2019-04-21T19:53:20.120Z,12.30
2019-04-21T19:58:10.751Z,12.20
2019-04-21T20:03:16.500Z,12.10
2019-04-21T20:08:36.271Z,12.10
2019-04-21T20:14:27.564Z,12.50
2019-04-21T20:18:40.471Z,12.70
2019-04-21T20:23:41.471Z,12.90
2019-04-21T20:28:58.812Z,13.10
2019-04-21T20:34:11.187Z,13.20
2019-04-21T20:39:06.020Z,13.20
2019-04-21T20:44:18.437Z,13.10
2019-04-21T20:49:23.081Z,12.90
2019-04-21T20:54:30.107Z,12.60
2019-04-21T20:59:32.701Z,12.50
2019-04-21T21:04:37.699Z,12.30
2019-04-21T21:09:57.462Z,12.20
2019-04-21T21:14:50.259Z,11.90
2019-04-21T21:20:07.746Z,11.60
2019-04-21T21:25:18.893Z,11.40
2019-04-21T21:30:14.594Z,11.10
2019-04-21T21:35:19.237Z,10.90
2019-04-21T21:40:34.927Z,10.70
2019-04-21T21:45:22.242Z,10.60
2019-04-21T21:50:39.879Z,10.50
2019-04-21T21:55:32.802Z,10.50
2019-04-21T22:00:43.137Z,10.50
2019-04-21T22:05:50.398Z,10.50
2019-04-21T22:10:50.357Z,10.70
2019-04-21T22:16:00.289Z,10.70
2019-04-21T22:21:12.795Z,10.70
2019-04-21T22:26:07.366Z,10.70
2019-04-21T22:31:15.261Z,10.80
2019-04-21T22:36:31.268Z,10.70
2019-04-21T22:41:30.972Z,10.50
2019-04-21T22:46:30.635Z,10.30
2019-04-21T22:51:38.938Z,10.20
2019-04-21T22:56:52.845Z,9.90
2019-04-21T23:01:50.436Z,9.70
2019-04-21T23:06:56.579Z,9.50
2019-04-21T23:12:01.306Z,9.40
2019-04-21T23:17:29.157Z,9.30
2019-04-21T23:22:29.511Z,9.10
2019-04-21T23:27:33.727Z,9.10
2019-04-21T23:32:36.321Z,9.20
2019-04-21T23:37:34.115Z,9.10
2019-04-21T23:42:40.071Z,9.00
2019-04-21T23:47:53.611Z,8.80
2019-04-21T23:52:48.068Z,8.70
2019-04-21T23:58:04.994Z,8.70
